Flight Track Log - Related Links

Times and Time Zones

All times are in EDT time to prevent confusion due to time zone crossing. See the SWA534 flight status page for this flight to view local times or setup timezone preferences in your user account.

Time Position Orientation Groundspeed Altitude Reporting Facility
EDT Latitude Longitude Course Direction KTS MPH feet Rate Location/Type
Wed 11:11:31 PM 40.8389 -112.0358 295° West 215 247 6,800  Level Salt Lake Center
Wed 11:12:33 PM 40.8231 -112.1242 257° West 242 278 10,000 2,000 Climbing Salt Lake Center
Wed 11:13:34 PM 40.8053 -112.2211 256° West 272 313 10,900 1,328 Climbing Salt Lake Center
Wed 11:14:35 PM 40.7306 -112.2797 211° Southwest 329 379 12,700 2,293 Climbing Salt Lake Center
Wed 11:15:37 PM 40.6358 -112.3000 189° South 345 397 15,600 2,780 Climbing Salt Lake Center
Wed 11:16:38 PM 40.5222 -112.3389 195° South 362 417 18,400 2,410 Climbing Salt Lake Center
Wed 11:17:39 PM 40.4236 -112.3861 200° South 378 435 20,500 2,115 Climbing Salt Lake Center
Wed 11:18:40 PM 40.3239 -112.4336 200° South 382 440 22,700 1,805 Climbing Salt Lake Center
Wed 11:19:42 PM 40.2208 -112.4817 200° South 397 457 24,200 1,659 Climbing Salt Lake Center
Wed 11:20:43 PM 40.1131 -112.5311 199° South 409 471 26,100 1,770 Climbing Salt Lake Center
Wed 11:21:44 PM 40.0053 -112.5822 200° South 412 474 27,800 1,770 Climbing Salt Lake Center
Wed 11:22:45 PM 39.8964 -112.6319 199° South 416 479 29,700 2,000 Climbing Salt Lake Center
Wed 11:23:47 PM 39.7906 -112.6817 200° South 406 467 31,900 1,122 Climbing Salt Lake Center
Wed 11:24:48 PM 39.6858 -112.7297 199° South 405 466 32,000 49 Climbing Salt Lake Center
Wed 11:25:49 PM 39.5558 -112.7869 199° South 411 473 32,000  Level Salt Lake Center
Wed 11:26:50 PM 39.4461 -112.8347 199° South 416 479 32,000  Level Salt Lake Center
Wed 11:27:51 PM 39.3347 -112.8847 199° South 424 488 32,000  Level Salt Lake Center
Wed 11:28:53 PM 39.2244 -112.9350 199° South 424 488 32,000 244 Level Salt Lake Center
Wed 11:29:54 PM 39.1139 -112.9856 200° South 424 488 32,500 984 Climbing Salt Lake Center
Wed 11:30:55 PM 39.0067 -113.0333 199° South 415 478 34,000 738 Climbing Salt Lake Center
Wed 11:31:56 PM 38.8997 -113.0817 199° South 410 472 34,000  Level Salt Lake Center
Wed 11:32:57 PM 38.7931 -113.1289 199° South 409 471 34,000 492 Level Salt Lake Center
Wed 11:33:58 PM 38.6864 -113.1767 199° South 409 471 35,000 492 Climbing Salt Lake Center
Wed 11:34:59 PM 38.5592 -113.2333 199° South 407 468 35,000  Level Salt Lake Center
Wed 11:36:01 PM 38.4528 -113.2817 200° South 408 470 35,000  Level Salt Lake Center
Wed 11:37:02 PM 38.3464 -113.3272 199° South 407 468 35,000  Level Salt Lake Center
Wed 11:38:03 PM 38.2411 -113.3736 199° South 405 466 35,000 -197 Level Salt Lake Center
Wed 11:39:04 PM 38.1342 -113.4206 199° South 408 470 34,600 -492 Descending Salt Lake Center
Wed 11:40:05 PM 38.0258 -113.4681 199° South 412 474 34,000 -295 Descending Salt Lake Center
Wed 11:41:06 PM 37.9186 -113.5150 199° South 411 473 34,000 -246 Level Salt Lake Center
Wed 11:42:07 PM 37.8103 -113.5603 198° South 411 473 33,500 -639 Descending Salt Lake Center
Wed 11:43:08 PM 37.7042 -113.6064 199° South 407 468 32,700 -738 Descending Salt Lake Center
Wed 11:44:09 PM 37.5761 -113.6611 199° South 407 468 32,000 -341 Descending Salt Lake Center
Wed 11:45:11 PM 37.4711 -113.7072 199° South 402 463 32,000  Level Salt Lake Center
Wed 11:46:12 PM 37.3633 -113.7522 198° South 407 468 32,000  Level Salt Lake Center
Wed 11:47:13 PM 37.2553 -113.7986 199° South 410 472 32,000  Level Salt Lake Center
Wed 11:48:14 PM 37.1453 -113.8433 198° South 415 478 32,000 -541 Level Salt Lake Center
Wed 11:49:15 PM 37.0342 -113.8889 198° South 419 482 30,900 -2,066 Descending Salt Lake Center
Wed 11:50:16 PM 36.9261 -113.9350 199° South 415 478 27,800 -2,754 Descending Salt Lake Center
Wed 11:51:17 PM 36.8203 -113.9786 198° South 409 471 25,300 -2,458 Descending Salt Lake Center
Wed 11:52:40 PM 36.6817 -114.0383 199° South 386 444 21,900 -2,417 Descending Los Angeles Center
Wed 11:53:41 PM 36.5853 -114.0789 199° South 372 428 19,500 -2,293 Descending Los Angeles Center
Wed 11:54:43 PM 36.5292 -114.1814 236° Southwest 361 415 17,200 -2,323 Descending Los Angeles Center
Wed 11:55:45 PM 36.4742 -114.3075 242° Southwest 346 398 14,700 -2,244 Descending Los Angeles Center
Wed 11:56:46 PM 36.4275 -114.4081 240° Southwest 340 391 12,600 -1,780 Descending Los Angeles Center
Wed 11:57:16 PM 36.4067 -114.4597 243° Southwest 333 383 12,000 -581 Descending Los Angeles Center
Wed 11:57:48 PM 36.3728 -114.4892 215° Southwest 323 372 12,000 -1,149 Level Los Angeles Center
Wed 11:58:50 PM 36.3147 -114.5594 224° Southwest 297 342 10,200 -1,500 Descending Los Angeles Center
Wed 11:59:52 PM 36.2642 -114.6400 232° Southwest 296 341 8,900 -1,415 Descending Los Angeles Center
Thu 12:00:53 AM 36.2183 -114.7153 233° Southwest 280 322 7,300 -1,073 Descending Los Angeles Center
Thu 12:01:55 AM 36.1722 -114.7853 231° Southwest 265 305 6,700 -677 Descending Los Angeles Center
Thu 12:02:57 AM 36.1350 -114.8478 234° Southwest 235 270 5,900 -878 Descending Los Angeles Center
Thu 12:03:58 AM 36.1000 -114.9244 241° Southwest 216 249 4,900 -927 Descending Los Angeles Center
Thu 12:05:00 AM 36.0742 -114.9856 242° Southwest 208 239 4,000 -823 Descending Los Angeles Center
Thu 12:06:02 AM 36.0736 -115.0461 269° West 185 213 3,200 -732 Descending Los Angeles Center
Thu 12:07:03 AM 36.0733 -115.0933 270° West 159 183 2,500 -585 Descending Los Angeles Center
Thu 12:08:05 AM 36.0736 -115.1439 270° West 148 170 2,000 -484 Descending Los Angeles Center

Login

Don't have an account? Register now (free) for customized features, flight alerts, and more!